createdAt,value
2023-02-28T00:01:25.497Z,0.57
2023-02-28T00:02:25.570Z,0.58
2023-02-28T00:04:25.471Z,0.56
2023-02-28T00:05:25.463Z,0.58
2023-02-28T00:06:25.479Z,0.57
2023-02-28T00:54:55.918Z,0.50
2023-02-28T00:55:56.890Z,0.50
2023-02-28T00:56:56.880Z,0.50
2023-02-28T00:57:56.860Z,0.50
2023-02-28T00:58:56.858Z,0.50
2023-02-28T00:59:56.857Z,0.50
2023-02-28T01:00:56.840Z,0.39
2023-02-28T01:01:56.918Z,0.35
2023-02-28T01:02:56.819Z,0.34
2023-02-28T01:03:56.836Z,0.34
2023-02-28T01:04:56.796Z,0.35
2023-02-28T01:05:56.789Z,0.37
2023-02-28T01:06:56.780Z,0.41
2023-02-28T01:07:56.768Z,0.45
2023-02-28T01:08:56.759Z,0.51
2023-02-28T01:09:56.750Z,0.50
2023-02-28T01:10:56.787Z,0.50
2023-02-28T01:11:56.759Z,0.50
2023-02-28T01:12:56.723Z,0.51
2023-02-28T01:13:56.712Z,0.50
2023-02-28T01:14:56.704Z,0.51
2023-02-28T01:15:56.807Z,0.50
2023-02-28T01:16:56.683Z,0.50
2023-02-28T01:17:56.679Z,0.50
2023-02-28T01:18:56.669Z,0.51
2023-02-28T01:19:56.661Z,0.50
2023-02-28T01:20:56.648Z,0.50
2023-02-28T01:21:56.633Z,0.51
2023-02-28T01:22:56.632Z,0.51
2023-02-28T01:23:56.623Z,0.50
2023-02-28T01:24:56.609Z,0.50
2023-02-28T01:25:56.612Z,0.50
2023-02-28T01:26:56.611Z,0.50
2023-02-28T01:27:56.579Z,0.51
2023-02-28T01:28:56.573Z,0.50
2023-02-28T01:29:56.568Z,0.51
2023-02-28T01:30:56.587Z,0.51
2023-02-28T01:31:56.586Z,0.51
2023-02-28T01:32:56.534Z,0.51
2023-02-28T01:33:56.527Z,0.50
2023-02-28T01:34:56.534Z,0.50
2023-02-28T01:35:56.516Z,0.51
2023-02-28T01:36:56.492Z,0.50
2023-02-28T01:38:00.989Z,0.51
2023-02-28T01:38:56.482Z,0.51
2023-02-28T01:39:56.474Z,0.51
2023-02-28T01:40:56.456Z,0.51
2023-02-28T01:41:56.455Z,0.51
2023-02-28T01:42:56.463Z,0.50
2023-02-28T01:43:56.430Z,0.51
2023-02-28T01:44:56.430Z,0.51
2023-02-28T01:45:56.418Z,0.51
2023-02-28T01:46:56.404Z,0.51
2023-02-28T01:47:56.394Z,0.51
2023-02-28T01:48:56.376Z,0.50
2023-02-28T01:49:56.370Z,0.51
2023-02-28T01:50:56.360Z,0.52
2023-02-28T01:51:56.353Z,0.51
2023-02-28T01:52:56.345Z,0.51
2023-02-28T01:53:56.342Z,0.52
2023-02-28T01:54:56.328Z,0.51
2023-02-28T01:55:56.314Z,0.52
2023-02-28T01:56:56.307Z,0.51
2023-02-28T01:57:56.293Z,0.50
2023-02-28T01:58:56.320Z,0.50
2023-02-28T01:59:56.285Z,0.51
2023-02-28T02:00:56.269Z,0.51
2023-02-28T02:01:56.338Z,0.51
2023-02-28T02:02:56.313Z,0.51
2023-02-28T02:03:56.371Z,0.51
2023-02-28T02:04:56.225Z,0.50
2023-02-28T02:05:56.226Z,0.51
2023-02-28T02:06:56.206Z,0.51
2023-02-28T02:07:56.204Z,0.50
2023-02-28T02:08:56.191Z,0.50
2023-02-28T02:09:56.185Z,0.51
2023-02-28T02:10:56.167Z,0.50
2023-02-28T02:11:56.167Z,0.51
2023-02-28T02:12:56.154Z,0.51
2023-02-28T02:13:56.158Z,0.51
2023-02-28T02:14:56.155Z,0.51
2023-02-28T02:15:56.200Z,0.51
2023-02-28T02:16:56.120Z,0.52
2023-02-28T02:17:56.111Z,0.51
2023-02-28T02:18:56.106Z,0.51
2023-02-28T02:19:56.090Z,0.50
2023-02-28T02:20:56.083Z,0.52
2023-02-28T02:21:56.077Z,0.51
2023-02-28T02:22:56.061Z,0.51
2023-02-28T02:23:56.052Z,0.51
2023-02-28T02:24:56.043Z,0.50
2023-02-28T02:25:56.029Z,0.51
2023-02-28T02:26:56.018Z,0.51
2023-02-28T02:27:56.014Z,0.51
2023-02-28T02:28:55.999Z,0.52
2023-02-28T02:29:55.995Z,0.52
2023-02-28T02:30:56.007Z,0.52
2023-02-28T02:31:56.074Z,0.51
2023-02-28T02:32:55.964Z,0.51
2023-02-28T02:33:55.950Z,0.51
2023-02-28T02:34:55.952Z,0.51
2023-02-28T02:35:55.940Z,0.51
2023-02-28T02:36:56.315Z,0.52
2023-02-28T02:37:55.915Z,0.52
2023-02-28T02:38:55.905Z,0.51
2023-02-28T02:39:55.895Z,0.51
2023-02-28T02:40:55.894Z,0.50
2023-02-28T02:41:55.874Z,0.51
2023-02-28T02:42:55.864Z,0.51
2023-02-28T02:43:55.857Z,0.51
2023-02-28T02:44:55.850Z,0.51
2023-02-28T02:45:55.845Z,0.53
2023-02-28T02:46:55.910Z,0.52
2023-02-28T02:47:55.821Z,0.51
2023-02-28T02:48:55.810Z,0.51
2023-02-28T02:49:55.798Z,0.51
2023-02-28T02:50:55.790Z,0.52
2023-02-28T02:51:55.788Z,0.51
2023-02-28T02:52:55.774Z,0.50
2023-02-28T02:53:55.764Z,0.51
2023-02-28T02:54:56.674Z,0.50
2023-02-28T02:55:55.741Z,0.52
2023-02-28T02:56:55.740Z,0.50
2023-02-28T02:57:55.726Z,0.51
2023-02-28T02:58:55.713Z,0.51
2023-02-28T02:59:55.708Z,0.51
2023-02-28T03:00:55.719Z,0.51
2023-02-28T03:01:55.694Z,0.51
2023-02-28T03:02:55.705Z,0.51
2023-02-28T03:03:55.737Z,0.50
2023-02-28T03:04:55.655Z,0.51
2023-02-28T03:05:55.652Z,0.51
2023-02-28T03:06:55.658Z,0.50
2023-02-28T03:07:55.636Z,0.51
2023-02-28T03:08:55.622Z,0.52
2023-02-28T03:09:55.612Z,0.51
2023-02-28T03:10:55.600Z,0.51
2023-02-28T03:11:55.594Z,0.51
2023-02-28T03:12:55.585Z,0.51
2023-02-28T03:13:55.579Z,0.51
2023-02-28T03:14:55.565Z,0.51
2023-02-28T03:15:55.606Z,0.51
2023-02-28T03:16:55.546Z,0.50
2023-02-28T03:17:55.535Z,0.51
2023-02-28T03:18:55.559Z,0.51
2023-02-28T03:19:55.515Z,0.51
2023-02-28T03:20:55.516Z,0.50
2023-02-28T03:21:55.501Z,0.51
2023-02-28T03:22:55.494Z,0.51
2023-02-28T03:23:55.486Z,0.51
2023-02-28T03:24:55.480Z,0.51
2023-02-28T03:25:55.466Z,0.51
2023-02-28T03:26:55.454Z,0.51
2023-02-28T03:27:55.460Z,0.51
2023-02-28T03:28:55.437Z,0.51
2023-02-28T03:29:55.435Z,0.51
2023-02-28T03:30:55.434Z,0.51
2023-02-28T03:31:55.505Z,0.51
2023-02-28T03:32:55.400Z,0.51
2023-02-28T03:33:55.393Z,0.51
2023-02-28T03:34:55.404Z,0.51
2023-02-28T03:35:55.420Z,0.52
2023-02-28T03:36:55.403Z,0.52
2023-02-28T03:37:55.357Z,0.52
2023-02-28T03:38:55.342Z,0.51
2023-02-28T03:39:55.335Z,0.52
2023-02-28T03:40:55.324Z,0.52
2023-02-28T03:41:55.336Z,0.53
2023-02-28T03:42:55.313Z,0.51
2023-02-28T03:43:55.294Z,0.52
2023-02-28T03:44:55.288Z,0.51
2023-02-28T03:45:55.308Z,0.51
2023-02-28T03:46:55.266Z,0.52
2023-02-28T03:47:55.280Z,0.52
2023-02-28T03:48:55.247Z,0.50
2023-02-28T03:49:55.253Z,0.50
2023-02-28T03:50:55.267Z,0.51
2023-02-28T03:51:55.230Z,0.52
2023-02-28T03:52:55.213Z,0.51
2023-02-28T03:53:55.203Z,0.51
2023-02-28T03:54:55.204Z,0.52
2023-02-28T03:55:55.180Z,0.51
2023-02-28T03:56:55.172Z,0.51
2023-02-28T03:57:55.179Z,0.51
2023-02-28T03:58:55.155Z,0.51
2023-02-28T03:59:55.159Z,0.51
2023-02-28T04:00:55.146Z,0.52
2023-02-28T04:01:55.163Z,0.52
2023-02-28T04:02:55.132Z,0.53
2023-02-28T04:03:55.116Z,0.52
2023-02-28T04:04:55.097Z,0.52
2023-02-28T04:05:55.099Z,0.51
2023-02-28T04:06:55.100Z,0.52
2023-02-28T04:07:55.095Z,0.50
2023-02-28T04:08:55.065Z,0.51
2023-02-28T04:09:55.061Z,0.51
2023-02-28T04:10:55.046Z,0.52
2023-02-28T04:11:55.031Z,0.51
2023-02-28T04:12:55.036Z,0.51
2023-02-28T04:13:55.012Z,0.52
2023-02-28T04:14:55.020Z,0.53
2023-02-28T04:15:55.010Z,0.51
2023-02-28T04:16:54.981Z,0.51
2023-02-28T04:17:54.974Z,0.51
2023-02-28T04:18:54.963Z,0.52
2023-02-28T04:19:54.968Z,0.52
2023-02-28T04:20:54.963Z,0.50
2023-02-28T04:21:54.969Z,0.51
2023-02-28T04:22:54.961Z,0.51
2023-02-28T04:23:54.929Z,0.52
2023-02-28T04:24:54.912Z,0.51
2023-02-28T04:25:54.912Z,0.51
2023-02-28T04:26:54.927Z,0.52
2023-02-28T04:27:54.890Z,0.50
2023-02-28T04:28:54.884Z,0.51
2023-02-28T04:29:54.869Z,0.51
2023-02-28T04:30:54.863Z,0.51
2023-02-28T04:31:55.074Z,0.52
2023-02-28T04:32:54.833Z,0.52
2023-02-28T04:33:54.829Z,0.52
2023-02-28T04:34:54.822Z,0.52
2023-02-28T04:35:54.882Z,0.51
2023-02-28T04:37:11.548Z,0.51
2023-02-28T04:37:54.789Z,0.51
2023-02-28T04:38:54.844Z,0.51
2023-02-28T04:39:54.772Z,0.51
2023-02-28T04:40:54.769Z,0.52
2023-02-28T04:41:54.759Z,0.52
2023-02-28T04:42:54.754Z,0.51
2023-02-28T04:43:54.739Z,0.51
2023-02-28T04:44:54.731Z,0.51
2023-02-28T04:45:54.736Z,0.51
2023-02-28T04:46:54.705Z,0.52
2023-02-28T04:47:54.710Z,0.51
2023-02-28T04:48:54.691Z,0.52
2023-02-28T04:49:54.679Z,0.51
2023-02-28T04:50:54.667Z,0.52
2023-02-28T04:51:54.670Z,0.51
2023-02-28T04:52:54.661Z,0.51
2023-02-28T04:53:54.637Z,0.52
2023-02-28T04:54:54.650Z,0.51
2023-02-28T04:55:54.620Z,0.52
2023-02-28T04:56:54.613Z,0.51
2023-02-28T04:57:54.599Z,0.50
2023-02-28T04:58:54.598Z,0.51
2023-02-28T04:59:54.578Z,0.51
2023-02-28T05:00:54.568Z,0.51
2023-02-28T05:01:54.623Z,0.51
2023-02-28T05:02:54.554Z,0.52
2023-02-28T05:03:54.551Z,0.51
2023-02-28T05:04:54.647Z,0.51
2023-02-28T05:05:54.530Z,0.51
2023-02-28T05:06:54.515Z,0.51
2023-02-28T05:07:54.514Z,0.51
2023-02-28T05:08:54.497Z,0.51
2023-02-28T05:09:54.489Z,0.51
2023-02-28T05:10:54.504Z,0.51
2023-02-28T05:11:54.468Z,0.51
2023-02-28T05:12:54.458Z,0.51
2023-02-28T05:13:54.450Z,0.51
2023-02-28T05:14:54.445Z,0.52
2023-02-28T05:15:54.465Z,0.51
2023-02-28T05:16:54.418Z,0.52
2023-02-28T05:17:54.444Z,0.51
2023-02-28T05:18:54.442Z,0.51
2023-02-28T05:19:57.134Z,0.51
2023-02-28T05:20:54.404Z,0.51
2023-02-28T05:21:54.370Z,0.52
2023-02-28T05:22:54.361Z,0.52
2023-02-28T05:23:54.349Z,0.52
2023-02-28T05:24:54.342Z,0.52
2023-02-28T05:25:54.343Z,0.52
2023-02-28T05:26:54.396Z,0.52
2023-02-28T05:27:54.325Z,0.51
2023-02-28T05:28:54.310Z,0.51
2023-02-28T05:29:54.293Z,0.51
2023-02-28T05:30:54.283Z,0.51
2023-02-28T05:31:54.461Z,0.51
2023-02-28T05:32:54.269Z,0.52
2023-02-28T05:33:54.282Z,0.51
2023-02-28T05:34:54.253Z,0.52
2023-02-28T05:35:54.310Z,0.51
2023-02-28T05:36:54.237Z,0.51
2023-02-28T05:37:54.218Z,0.51
2023-02-28T05:38:54.280Z,0.53
2023-02-28T05:39:54.201Z,0.50
2023-02-28T05:40:54.193Z,0.52
2023-02-28T05:41:54.186Z,0.51
2023-02-28T05:42:54.202Z,0.52
2023-02-28T05:43:54.189Z,0.51
2023-02-28T05:44:54.151Z,0.51
2023-02-28T05:45:54.259Z,0.51
2023-02-28T05:46:54.142Z,0.52
2023-02-28T05:47:54.133Z,0.51
2023-02-28T05:48:54.224Z,0.51
2023-02-28T05:49:54.136Z,0.51
2023-02-28T05:50:54.255Z,0.51
2023-02-28T05:51:54.090Z,0.51
2023-02-28T05:52:54.080Z,0.51
2023-02-28T05:53:54.075Z,0.51
2023-02-28T05:54:54.068Z,0.52
2023-02-28T05:55:54.062Z,0.51
2023-02-28T05:56:54.052Z,0.52
2023-02-28T05:57:54.029Z,0.52
2023-02-28T05:58:54.054Z,0.52
2023-02-28T05:59:54.012Z,0.52
2023-02-28T06:00:54.020Z,0.52
2023-02-28T06:01:54.007Z,0.52
2023-02-28T06:02:53.992Z,0.51
2023-02-28T06:03:53.978Z,0.51
2023-02-28T06:04:53.969Z,0.51
2023-02-28T06:05:54.007Z,0.51
2023-02-28T06:06:53.948Z,0.53
2023-02-28T06:07:53.935Z,0.52
2023-02-28T06:08:53.929Z,0.51
2023-02-28T06:09:53.958Z,0.52
2023-02-28T06:10:53.913Z,0.52
2023-02-28T06:11:53.988Z,0.52
2023-02-28T06:12:53.890Z,0.51
2023-02-28T06:13:53.927Z,0.52
2023-02-28T06:14:53.905Z,0.52
2023-02-28T06:15:53.889Z,0.52
2023-02-28T06:16:54.082Z,0.51
2023-02-28T06:17:53.884Z,0.51
2023-02-28T06:18:53.899Z,0.52
2023-02-28T06:19:53.916Z,0.51
2023-02-28T06:20:53.825Z,0.52
2023-02-28T06:21:53.829Z,0.53
2023-02-28T06:22:53.804Z,0.52
2023-02-28T06:23:53.794Z,0.52
2023-02-28T06:24:53.797Z,0.53
2023-02-28T06:25:53.775Z,0.53
2023-02-28T06:26:53.790Z,0.53
2023-02-28T06:27:53.752Z,0.54
2023-02-28T06:28:53.744Z,0.56
2023-02-28T06:29:53.739Z,0.57
2023-02-28T06:30:54.102Z,0.58
2023-02-28T06:31:53.751Z,0.59
2023-02-28T06:32:53.713Z,0.60
2023-02-28T06:33:53.696Z,0.60
2023-02-28T06:34:53.692Z,0.61
2023-02-28T06:35:54.062Z,0.62
2023-02-28T06:36:53.671Z,0.64
2023-02-28T06:37:53.669Z,0.63
2023-02-28T06:38:53.653Z,0.65
2023-02-28T06:39:53.661Z,0.65
2023-02-28T06:40:53.666Z,0.66
2023-02-28T06:41:56.008Z,0.66
2023-02-28T06:42:54.011Z,0.66
2023-02-28T06:43:53.610Z,0.66
2023-02-28T06:44:53.604Z,0.67
2023-02-28T06:45:53.636Z,0.68
2023-02-28T06:46:54.033Z,0.69
2023-02-28T06:47:53.598Z,0.69
2023-02-28T06:48:53.567Z,0.80
2023-02-28T06:49:53.579Z,0.76
2023-02-28T06:50:53.548Z,0.75
2023-02-28T06:51:54.017Z,0.75
2023-02-28T06:52:54.010Z,0.77
2023-02-28T06:53:53.540Z,0.75
2023-02-28T06:54:53.517Z,0.78
2023-02-28T06:55:53.508Z,0.80
2023-02-28T06:56:53.492Z,0.87
2023-02-28T06:57:53.521Z,0.84
2023-02-28T06:58:53.486Z,0.84
2023-02-28T06:59:53.479Z,0.87
2023-02-28T07:00:53.464Z,0.90
2023-02-28T07:01:53.495Z,0.91
2023-02-28T07:02:53.570Z,0.91
2023-02-28T07:04:56.693Z,0.91
2023-02-28T07:05:53.405Z,0.91
2023-02-28T07:06:53.422Z,0.92
2023-02-28T07:07:53.689Z,0.94
2023-02-28T07:08:53.378Z,0.95
2023-02-28T07:09:53.369Z,0.98
2023-02-28T07:10:53.371Z,0.97
2023-02-28T07:11:53.345Z,0.98
2023-02-28T07:12:53.342Z,0.99
2023-02-28T07:13:53.330Z,0.99
2023-02-28T07:14:53.520Z,1.00
2023-02-28T07:15:53.344Z,0.99
2023-02-28T07:16:53.302Z,0.99
2023-02-28T07:17:53.304Z,0.98
2023-02-28T07:18:53.306Z,1.00
2023-02-28T07:19:53.273Z,1.01
2023-02-28T07:20:53.277Z,0.99
2023-02-28T07:21:53.250Z,1.00
2023-02-28T07:22:53.246Z,0.99
2023-02-28T07:23:53.234Z,1.00
2023-02-28T07:24:53.228Z,0.99
2023-02-28T07:25:53.224Z,1.01
2023-02-28T07:26:53.207Z,1.01
2023-02-28T07:27:53.194Z,0.97
2023-02-28T07:28:53.530Z,0.97
2023-02-28T07:29:53.181Z,0.99
2023-02-28T07:30:53.220Z,0.99
2023-02-28T07:31:53.224Z,0.99
2023-02-28T07:32:53.524Z,0.98
2023-02-28T07:33:53.137Z,0.99
2023-02-28T07:34:53.156Z,0.98
2023-02-28T07:35:53.163Z,0.99
2023-02-28T07:36:53.111Z,0.99
2023-02-28T07:37:53.528Z,1.00
2023-02-28T07:38:53.106Z,0.99
2023-02-28T07:39:53.097Z,0.98
2023-02-28T07:40:53.071Z,0.97
2023-02-28T07:41:53.076Z,1.00
2023-02-28T07:42:53.556Z,0.97
2023-02-28T07:43:53.531Z,1.00
2023-02-28T07:44:53.053Z,0.99
2023-02-28T07:45:54.030Z,0.97
2023-02-28T07:46:53.119Z,0.76
2023-02-28T07:47:53.041Z,0.78
2023-02-28T07:48:53.012Z,0.80
2023-02-28T07:49:53.051Z,0.93
2023-02-28T07:50:53.016Z,0.91
2023-02-28T07:51:53.984Z,0.88
2023-02-28T07:52:53.044Z,0.83
2023-02-28T07:53:52.974Z,0.85
2023-02-28T07:54:52.960Z,0.80
2023-02-28T07:55:54.629Z,0.79
2023-02-28T07:56:53.944Z,0.80
2023-02-28T07:58:52.917Z,0.80
2023-02-28T07:59:52.909Z,0.80
2023-02-28T08:00:52.965Z,0.82
2023-02-28T08:01:52.897Z,0.85
2023-02-28T08:02:53.780Z,0.90
2023-02-28T08:03:52.915Z,0.95
2023-02-28T08:04:53.122Z,0.96
2023-02-28T08:05:52.876Z,0.98
2023-02-28T08:06:52.895Z,1.03
2023-02-28T08:07:52.833Z,1.04
2023-02-28T08:08:53.828Z,1.09
2023-02-28T08:09:53.053Z,1.10
2023-02-28T08:10:52.805Z,1.14
2023-02-28T08:11:52.793Z,1.17
2023-02-28T08:12:52.807Z,1.21
2023-02-28T08:13:52.787Z,1.27
2023-02-28T08:14:53.114Z,1.29
2023-02-28T08:15:52.839Z,1.34
2023-02-28T08:17:52.748Z,1.38
2023-02-28T08:18:53.065Z,1.39
2023-02-28T08:19:52.724Z,1.42
2023-02-28T08:20:52.715Z,1.45
2023-02-28T08:21:52.701Z,1.26
2023-02-28T08:22:54.073Z,1.15
2023-02-28T08:23:53.075Z,0.95
2023-02-28T08:24:52.698Z,0.86
2023-02-28T08:25:52.778Z,0.83
2023-02-28T08:26:53.024Z,0.78
2023-02-28T08:27:52.660Z,0.72
2023-02-28T08:28:53.050Z,0.63
2023-02-28T08:29:53.054Z,0.60
2023-02-28T08:30:53.618Z,0.55
2023-02-28T08:31:52.751Z,0.55
2023-02-28T08:32:52.615Z,0.50
2023-02-28T08:33:52.625Z,0.50
2023-02-28T08:34:52.588Z,0.70
2023-02-28T08:35:53.173Z,0.97
2023-02-28T08:36:52.582Z,0.89
2023-02-28T08:37:53.196Z,0.73
2023-02-28T08:38:53.617Z,0.73
2023-02-28T08:39:56.023Z,0.70
2023-02-28T08:42:02.147Z,0.71
2023-02-28T08:42:52.525Z,0.71
2023-02-28T08:43:52.503Z,0.72
2023-02-28T08:44:52.570Z,0.71
2023-02-28T08:45:52.586Z,0.72
2023-02-28T08:46:52.496Z,0.68
2023-02-28T08:47:52.476Z,0.66
2023-02-28T08:48:52.592Z,0.63
2023-02-28T08:49:52.581Z,0.63
2023-02-28T08:51:06.396Z,0.68
2023-02-28T08:51:52.624Z,0.66
2023-02-28T08:52:52.461Z,0.61
2023-02-28T08:53:53.461Z,0.58
2023-02-28T08:54:52.476Z,0.56
2023-02-28T08:55:52.431Z,0.51
2023-02-28T08:56:52.647Z,0.52
2023-02-28T08:57:52.576Z,0.54
2023-02-28T08:58:52.869Z,0.51
2023-02-28T08:59:52.730Z,0.50
2023-02-28T09:00:52.520Z,0.50
2023-02-28T09:01:52.662Z,0.50
2023-02-28T09:02:52.441Z,0.53
2023-02-28T09:03:52.664Z,0.60
2023-02-28T09:04:52.750Z,0.67
2023-02-28T09:05:52.700Z,0.72
2023-02-28T09:06:52.890Z,0.78
2023-02-28T09:07:52.291Z,0.79
2023-02-28T09:08:52.281Z,0.79
2023-02-28T09:09:53.335Z,0.83
2023-02-28T09:10:52.297Z,0.87
2023-02-28T09:11:52.256Z,0.88
2023-02-28T09:12:52.571Z,0.95
2023-02-28T09:13:52.240Z,0.99
2023-02-28T09:14:52.237Z,1.00
2023-02-28T09:15:52.444Z,1.06
2023-02-28T09:16:52.434Z,1.11
2023-02-28T09:17:52.572Z,1.11
2023-02-28T09:18:52.194Z,1.15
2023-02-28T09:19:52.599Z,1.20
2023-02-28T09:20:52.204Z,1.22
2023-02-28T09:21:52.574Z,1.30
2023-02-28T09:22:52.158Z,1.32
2023-02-28T09:23:53.137Z,1.36
2023-02-28T09:24:52.132Z,1.46
2023-02-28T09:25:52.126Z,1.50
2023-02-28T09:27:03.850Z,1.53
2023-02-28T09:27:52.417Z,1.53
2023-02-28T09:28:52.866Z,1.55
2023-02-28T09:29:52.303Z,1.60
2023-02-28T09:30:52.428Z,1.66
2023-02-28T09:31:52.450Z,1.77
2023-02-28T09:32:52.063Z,1.82
2023-02-28T09:33:52.152Z,1.85
2023-02-28T09:34:52.057Z,1.91
2023-02-28T09:35:52.109Z,1.97
2023-02-28T09:36:52.629Z,2.01
2023-02-28T09:37:52.035Z,2.05
2023-02-28T09:38:52.028Z,2.10
2023-02-28T09:39:52.011Z,2.15
2023-02-28T09:40:51.990Z,2.20
2023-02-28T09:41:52.492Z,2.26
2023-02-28T09:42:52.007Z,2.31
2023-02-28T09:43:51.960Z,2.41
2023-02-28T09:44:52.110Z,2.43
2023-02-28T09:45:51.969Z,2.53
2023-02-28T09:46:52.083Z,2.57
2023-02-28T09:47:51.927Z,2.64
2023-02-28T09:48:51.916Z,2.73
2023-02-28T09:49:51.900Z,2.73
2023-02-28T09:50:52.088Z,2.81
2023-02-28T09:51:51.888Z,2.79
2023-02-28T09:52:51.881Z,2.90
2023-02-28T09:53:56.620Z,2.96
2023-02-28T09:54:52.095Z,2.97
2023-02-28T09:55:51.855Z,3.00
2023-02-28T09:56:52.093Z,3.05
2023-02-28T09:57:51.837Z,3.17
2023-02-28T09:58:51.861Z,3.36
2023-02-28T09:59:51.817Z,3.39
2023-02-28T10:00:51.809Z,3.47
2023-02-28T10:01:52.197Z,3.55
2023-02-28T10:02:51.787Z,3.62
2023-02-28T10:03:51.786Z,3.70
2023-02-28T10:04:51.827Z,3.71
2023-02-28T10:05:52.100Z,3.75
2023-02-28T10:06:52.100Z,3.89
2023-02-28T10:07:51.756Z,3.93
2023-02-28T10:08:51.733Z,4.00
2023-02-28T10:09:51.732Z,3.93
2023-02-28T10:10:52.107Z,4.10
2023-02-28T10:11:51.746Z,4.26
2023-02-28T10:12:53.612Z,4.27
2023-02-28T10:13:52.098Z,4.44
2023-02-28T10:14:51.725Z,4.45
2023-02-28T10:15:51.731Z,4.46
2023-02-28T10:16:52.101Z,4.49
2023-02-28T10:17:55.445Z,4.53
2023-02-28T10:18:51.651Z,4.47
2023-02-28T10:19:51.648Z,4.53
2023-02-28T10:20:51.638Z,4.62
2023-02-28T10:21:53.110Z,4.82
2023-02-28T10:22:51.611Z,5.28
2023-02-28T10:23:52.102Z,5.21
2023-02-28T10:24:51.607Z,5.27
2023-02-28T10:25:51.604Z,5.40
2023-02-28T10:26:52.644Z,5.23
2023-02-28T10:27:51.576Z,5.14
2023-02-28T10:28:51.557Z,5.01
2023-02-28T10:29:51.549Z,5.06
2023-02-28T10:30:51.676Z,5.08
2023-02-28T10:31:51.637Z,5.20
2023-02-28T10:32:51.548Z,5.18
2023-02-28T10:33:51.612Z,5.27
2023-02-28T10:34:51.514Z,5.42
2023-02-28T10:35:51.550Z,5.59
2023-02-28T10:36:51.519Z,5.56
2023-02-28T10:37:51.485Z,5.60
2023-02-28T10:38:52.640Z,5.87
2023-02-28T10:39:51.463Z,5.87
2023-02-28T10:40:51.464Z,6.00
2023-02-28T10:41:52.328Z,6.13
2023-02-28T10:42:51.437Z,6.11
2023-02-28T10:43:51.617Z,6.34
2023-02-28T10:44:51.416Z,6.52
2023-02-28T10:45:51.406Z,6.08
2023-02-28T10:46:51.771Z,5.58
2023-02-28T10:47:53.405Z,5.25
2023-02-28T10:48:51.616Z,5.11
2023-02-28T10:49:51.374Z,4.55
2023-02-28T10:50:51.367Z,4.48
2023-02-28T10:51:51.624Z,4.18
2023-02-28T10:52:51.343Z,3.83
2023-02-28T10:54:01.148Z,3.29
2023-02-28T10:54:51.335Z,3.29
2023-02-28T10:55:51.343Z,3.08
2023-02-28T10:56:52.613Z,2.86
2023-02-28T10:57:51.622Z,2.77
2023-02-28T10:58:51.289Z,2.57
2023-02-28T10:59:51.294Z,2.31
2023-02-28T11:00:51.281Z,2.16
2023-02-28T11:01:51.764Z,2.12
2023-02-28T11:02:51.290Z,1.98
2023-02-28T11:03:51.259Z,1.78
2023-02-28T11:04:51.635Z,1.62
2023-02-28T11:05:51.220Z,1.61
2023-02-28T11:06:51.220Z,1.63
2023-02-28T11:07:53.315Z,1.48
2023-02-28T11:08:51.208Z,1.32
2023-02-28T11:09:51.201Z,1.30
2023-02-28T11:10:51.187Z,1.29
2023-02-28T11:11:51.171Z,1.28
2023-02-28T11:12:53.257Z,1.28
2023-02-28T11:13:51.155Z,1.23
2023-02-28T11:14:51.141Z,1.14
2023-02-28T11:15:51.472Z,1.15
2023-02-28T11:16:51.126Z,1.15
2023-02-28T11:17:51.131Z,1.02
2023-02-28T11:18:51.149Z,1.08
2023-02-28T11:19:51.485Z,0.97
2023-02-28T11:20:51.123Z,0.91
2023-02-28T11:21:51.189Z,1.03
2023-02-28T11:22:53.066Z,1.09
2023-02-28T11:23:51.174Z,1.09
2023-02-28T11:24:51.046Z,1.09
2023-02-28T11:25:51.064Z,0.67
2023-02-28T11:26:51.034Z,0.48
2023-02-28T11:27:51.138Z,0.36
2023-02-28T11:28:51.010Z,0.44
2023-02-28T11:29:51.116Z,0.52
2023-02-28T11:30:51.135Z,0.52
2023-02-28T11:31:51.080Z,0.54
2023-02-28T11:32:51.129Z,0.51
2023-02-28T11:33:50.962Z,0.50
2023-02-28T11:34:50.980Z,0.51
2023-02-28T11:35:51.215Z,0.50
2023-02-28T11:36:50.930Z,0.51
2023-02-28T11:37:51.134Z,0.51
2023-02-28T11:38:50.914Z,0.51
2023-02-28T11:39:51.134Z,0.52
2023-02-28T11:40:50.923Z,0.51
2023-02-28T11:41:50.919Z,0.50
2023-02-28T11:42:51.167Z,0.50
2023-02-28T11:43:50.870Z,0.50
2023-02-28T11:44:50.859Z,0.51
2023-02-28T11:45:50.856Z,0.52
2023-02-28T11:46:52.228Z,0.50
2023-02-28T11:47:51.142Z,0.50
2023-02-28T11:48:51.134Z,0.50
2023-02-28T11:49:50.994Z,0.51
2023-02-28T11:50:51.005Z,0.50
2023-02-28T11:51:50.981Z,0.51
2023-02-28T11:52:51.248Z,0.50
2023-02-28T11:53:51.064Z,0.50
2023-02-28T11:54:50.952Z,0.52
2023-02-28T11:55:50.945Z,0.50
2023-02-28T11:56:51.018Z,0.52
2023-02-28T11:57:51.149Z,0.52
2023-02-28T11:58:50.999Z,0.50
2023-02-28T11:59:50.909Z,0.52
2023-02-28T12:00:50.903Z,0.54
2023-02-28T12:01:51.988Z,0.54
2023-02-28T12:02:51.342Z,0.50
2023-02-28T12:03:50.866Z,0.52
2023-02-28T12:04:50.997Z,0.53
2023-02-28T12:05:50.865Z,0.51
2023-02-28T12:06:51.227Z,0.50
2023-02-28T12:07:50.838Z,0.50
2023-02-28T12:08:51.156Z,0.59
2023-02-28T12:09:50.840Z,0.73
2023-02-28T12:10:50.812Z,1.36
2023-02-28T12:11:50.808Z,2.42
2023-02-28T12:12:51.154Z,2.85
2023-02-28T12:13:50.787Z,3.57
2023-02-28T12:14:50.785Z,3.31
2023-02-28T12:15:50.764Z,3.58
2023-02-28T12:16:50.763Z,3.95
2023-02-28T12:17:51.172Z,4.79
2023-02-28T12:18:51.170Z,5.03
2023-02-28T12:19:50.733Z,4.50
2023-02-28T12:20:50.720Z,5.20
2023-02-28T12:21:51.184Z,7.06
2023-02-28T12:22:50.729Z,6.75
2023-02-28T12:23:50.775Z,6.28
2023-02-28T12:24:50.688Z,6.42
2023-02-28T12:25:50.670Z,6.68
2023-02-28T12:26:50.700Z,7.19
2023-02-28T12:27:50.651Z,7.32
2023-02-28T12:28:50.726Z,7.56
2023-02-28T12:29:51.332Z,7.49
2023-02-28T12:30:50.674Z,7.86
2023-02-28T12:31:50.781Z,7.91
2023-02-28T12:32:50.795Z,7.99
2023-02-28T12:33:51.039Z,7.94
2023-02-28T12:34:50.582Z,8.07
2023-02-28T12:35:50.721Z,8.16
2023-02-28T12:36:50.576Z,8.27
2023-02-28T12:37:50.571Z,8.32
2023-02-28T12:38:50.563Z,8.60
2023-02-28T12:39:51.163Z,8.43
2023-02-28T12:40:50.684Z,8.44
2023-02-28T12:41:50.518Z,8.55
2023-02-28T12:42:50.510Z,8.47
2023-02-28T12:43:50.666Z,8.54
2023-02-28T12:44:50.505Z,8.53
2023-02-28T12:45:50.843Z,8.42
2023-02-28T12:46:50.632Z,8.41
2023-02-28T12:47:50.942Z,8.50
2023-02-28T12:48:50.460Z,8.46
2023-02-28T12:49:50.501Z,8.61
2023-02-28T12:50:50.678Z,8.50
2023-02-28T12:51:50.672Z,8.77
2023-02-28T12:52:50.417Z,8.51
2023-02-28T12:53:50.671Z,8.38
2023-02-28T12:54:50.426Z,8.47
2023-02-28T12:55:50.403Z,8.35
2023-02-28T12:56:50.674Z,8.33
2023-02-28T12:57:50.385Z,8.50
2023-02-28T12:58:50.366Z,8.41
2023-02-28T12:59:50.360Z,8.38
2023-02-28T13:00:50.424Z,8.25
2023-02-28T13:01:50.682Z,8.22
2023-02-28T13:02:50.680Z,8.21
2023-02-28T13:03:50.673Z,8.27
2023-02-28T13:04:50.681Z,8.12
2023-02-28T13:05:50.299Z,8.16
2023-02-28T13:06:50.294Z,7.98
2023-02-28T13:07:50.288Z,8.07
2023-02-28T13:08:50.270Z,8.11
2023-02-28T13:09:50.676Z,7.99
2023-02-28T13:10:50.356Z,7.98
2023-02-28T13:11:50.266Z,7.97
2023-02-28T13:12:50.683Z,7.91
2023-02-28T13:13:50.226Z,7.88
2023-02-28T13:14:50.212Z,7.78
2023-02-28T13:15:50.205Z,7.73
2023-02-28T13:16:50.729Z,7.78
2023-02-28T13:17:50.184Z,7.64
2023-02-28T13:18:49.240Z,7.80
2023-02-28T13:19:50.170Z,7.67
2023-02-28T13:20:50.476Z,7.66
2023-02-28T13:21:50.905Z,7.47
2023-02-28T13:22:50.144Z,7.55
2023-02-28T13:23:50.131Z,7.27
2023-02-28T13:24:50.179Z,7.32
2023-02-28T13:25:50.110Z,7.31
2023-02-28T13:26:50.157Z,7.27
2023-02-28T13:27:50.182Z,7.39
2023-02-28T13:28:50.084Z,7.20
2023-02-28T13:29:50.182Z,7.23
2023-02-28T13:30:50.114Z,7.19
2023-02-28T13:31:50.089Z,7.18
2023-02-28T13:32:50.049Z,7.06
2023-02-28T13:33:50.609Z,6.95
2023-02-28T13:34:50.042Z,7.06
2023-02-28T13:35:50.048Z,7.02
2023-02-28T13:36:50.008Z,7.01
2023-02-28T13:37:50.004Z,6.88
2023-02-28T13:38:50.230Z,6.64
2023-02-28T13:39:50.056Z,6.78
2023-02-28T13:40:49.973Z,6.79
2023-02-28T13:41:50.193Z,6.59
2023-02-28T13:42:49.974Z,6.61
2023-02-28T13:43:49.948Z,6.51
2023-02-28T13:44:49.937Z,6.51
2023-02-28T13:45:49.950Z,6.59
2023-02-28T13:46:50.193Z,6.53
2023-02-28T13:47:50.582Z,6.61
2023-02-28T13:48:49.902Z,6.41
2023-02-28T13:49:50.426Z,6.26
2023-02-28T13:50:50.504Z,6.34
2023-02-28T13:51:49.880Z,6.32
2023-02-28T13:52:50.489Z,6.21
2023-02-28T13:53:50.653Z,6.24
2023-02-28T13:54:49.842Z,6.17
2023-02-28T13:55:49.928Z,6.15
2023-02-28T13:56:50.607Z,6.16
2023-02-28T13:57:50.651Z,6.19
2023-02-28T13:58:50.358Z,6.11
2023-02-28T13:59:50.201Z,6.03
2023-02-28T14:00:50.298Z,6.17
2023-02-28T14:01:50.252Z,6.16
2023-02-28T14:02:51.191Z,6.10
2023-02-28T14:03:50.850Z,6.11
2023-02-28T14:04:50.433Z,6.07
2023-02-28T14:05:50.388Z,6.01
2023-02-28T14:06:50.616Z,5.91
2023-02-28T14:07:50.718Z,5.99
2023-02-28T14:08:50.411Z,5.88
2023-02-28T14:09:50.367Z,5.90
2023-02-28T14:10:50.043Z,5.88
2023-02-28T14:11:50.314Z,5.82